createdAt,value
2022-08-03T00:01:05.275Z,21.78
2022-08-03T00:03:54.893Z,21.74
2022-08-03T00:06:44.961Z,21.70
2022-08-03T00:09:35.650Z,21.68
2022-08-03T00:12:26.564Z,21.66
2022-08-03T00:15:16.936Z,21.64
2022-08-03T00:18:07.422Z,21.60
2022-08-03T00:20:56.685Z,21.57
2022-08-03T00:23:52.282Z,21.53
2022-08-03T00:26:41.813Z,21.50
2022-08-03T00:29:30.362Z,21.47
2022-08-03T00:32:18.912Z,21.45
2022-08-03T00:35:26.610Z,21.42
2022-08-03T00:38:21.817Z,21.40
2022-08-03T00:41:10.776Z,21.38
2022-08-03T00:43:59.254Z,21.37
2022-08-03T00:46:48.412Z,21.34
2022-08-03T00:49:38.513Z,21.35
2022-08-03T00:52:27.644Z,21.33
2022-08-03T00:55:17.322Z,21.31
2022-08-03T00:58:06.798Z,21.29
2022-08-03T01:00:56.018Z,21.25
2022-08-03T01:03:44.917Z,21.24
2022-08-03T01:06:42.616Z,21.22
2022-08-03T01:09:38.553Z,21.19
2022-08-03T01:12:35.553Z,21.17
2022-08-03T01:15:29.827Z,21.12
2022-08-03T01:18:26.378Z,21.08
2022-08-03T01:21:22.213Z,21.05
2022-08-03T01:24:23.852Z,21.03
2022-08-03T01:27:19.471Z,21.01
2022-08-03T01:30:11.582Z,20.99
2022-08-03T01:33:04.715Z,20.95
2022-08-03T01:36:02.740Z,20.91
2022-08-03T01:38:54.904Z,20.87
2022-08-03T01:41:48.722Z,20.83
2022-08-03T01:44:41.428Z,20.79
2022-08-03T01:47:32.296Z,20.75
2022-08-03T01:50:24.929Z,20.70
2022-08-03T01:53:15.563Z,20.61
2022-08-03T01:56:09.165Z,20.56
2022-08-03T01:59:01.179Z,20.52
2022-08-03T02:02:31.722Z,20.49
2022-08-03T02:05:01.493Z,20.44
2022-08-03T02:07:52.602Z,20.41
2022-08-03T02:10:43.524Z,20.38
2022-08-03T02:13:35.852Z,20.34
2022-08-03T02:16:27.117Z,20.30
2022-08-03T02:19:17.262Z,20.26
2022-08-03T02:22:08.739Z,20.22
2022-08-03T02:24:57.111Z,20.19
2022-08-03T02:27:52.215Z,20.12
2022-08-03T02:30:44.149Z,20.06
2022-08-03T02:33:41.557Z,20.02
2022-08-03T02:36:35.168Z,19.97
2022-08-03T02:39:28.685Z,19.91
2022-08-03T02:42:22.105Z,19.87
2022-08-03T02:45:15.231Z,19.84
2022-08-03T02:48:06.998Z,19.80
2022-08-03T02:51:00.322Z,19.74
2022-08-03T02:53:51.807Z,19.71
2022-08-03T02:56:41.955Z,19.66
2022-08-03T02:59:33.890Z,19.62
2022-08-03T03:02:24.486Z,19.60
2022-08-03T03:05:56.803Z,19.57
2022-08-03T03:08:28.697Z,19.55
2022-08-03T03:11:21.124Z,19.52
2022-08-03T03:14:13.386Z,19.51
2022-08-03T03:17:04.103Z,19.49
2022-08-03T03:19:54.592Z,19.48
2022-08-03T03:22:47.252Z,19.44
2022-08-03T03:25:38.598Z,19.40
2022-08-03T03:28:29.054Z,19.36
2022-08-03T03:31:18.013Z,19.32
2022-08-03T03:34:07.176Z,19.27
2022-08-03T03:36:55.727Z,19.27
2022-08-03T03:39:44.482Z,19.25
2022-08-03T03:42:34.264Z,19.27
2022-08-03T03:45:24.861Z,19.26
2022-08-03T03:48:14.601Z,19.26
2022-08-03T03:51:04.420Z,19.26
2022-08-03T03:54:00.670Z,19.25
2022-08-03T03:56:49.917Z,19.25
2022-08-03T03:59:40.689Z,19.26
2022-08-03T04:02:30.500Z,19.26
2022-08-03T04:05:37.080Z,19.27
2022-08-03T04:08:47.125Z,19.28
2022-08-03T04:11:43.576Z,19.28
2022-08-03T04:14:36.147Z,19.29
2022-08-03T04:17:27.699Z,19.29
2022-08-03T04:20:18.680Z,19.33
2022-08-03T04:23:12.797Z,19.36
2022-08-03T04:26:09.156Z,19.42
2022-08-03T04:28:59.545Z,19.48
2022-08-03T04:31:49.203Z,19.55
2022-08-03T04:34:38.582Z,19.62
2022-08-03T04:37:35.844Z,19.69
2022-08-03T04:40:30.746Z,19.77
2022-08-03T04:43:21.750Z,19.87
2022-08-03T04:46:12.514Z,19.96
2022-08-03T04:49:03.649Z,20.06
2022-08-03T04:51:53.686Z,20.18
2022-08-03T04:54:48.820Z,20.29
2022-08-03T04:57:40.887Z,20.42
2022-08-03T05:00:30.668Z,20.56
2022-08-03T05:03:23.711Z,20.71
2022-08-03T05:06:14.324Z,20.84
2022-08-03T05:09:06.101Z,20.99
2022-08-03T05:11:55.317Z,21.10
2022-08-03T05:14:45.286Z,21.22
2022-08-03T05:17:34.255Z,21.36
2022-08-03T05:20:26.003Z,21.48
2022-08-03T05:23:15.457Z,21.59
2022-08-03T05:26:06.054Z,21.72
2022-08-03T05:28:54.970Z,21.81
2022-08-03T05:31:44.178Z,21.91
2022-08-03T05:34:33.025Z,22.03
2022-08-03T05:37:21.892Z,22.11
2022-08-03T05:40:14.153Z,22.24
2022-08-03T05:43:03.910Z,22.37
2022-08-03T05:46:01.511Z,22.51
2022-08-03T05:49:01.945Z,22.63
2022-08-03T05:52:00.150Z,22.75
2022-08-03T05:54:58.869Z,22.86
2022-08-03T05:57:49.239Z,22.98
2022-08-03T06:00:39.040Z,23.11
2022-08-03T06:03:27.800Z,23.26
2022-08-03T06:06:16.962Z,23.44
2022-08-03T06:09:06.539Z,23.60
2022-08-03T06:11:55.701Z,23.75
2022-08-03T06:14:44.413Z,23.90
2022-08-03T06:17:37.245Z,24.03
2022-08-03T06:20:27.906Z,24.12
2022-08-03T06:23:18.064Z,24.20
2022-08-03T06:26:07.258Z,24.28
2022-08-03T06:28:57.045Z,24.38
2022-08-03T06:31:46.204Z,24.47
2022-08-03T06:34:36.187Z,24.55
2022-08-03T06:37:26.809Z,24.63
2022-08-03T06:40:16.769Z,24.70
2022-08-03T06:43:15.355Z,24.74
2022-08-03T06:46:06.172Z,24.80
2022-08-03T06:48:56.347Z,24.81
2022-08-03T06:52:05.545Z,24.82
2022-08-03T06:54:55.554Z,24.86
2022-08-03T06:57:44.737Z,24.90
2022-08-03T07:00:35.133Z,24.96
2022-08-03T07:03:24.702Z,25.01
2022-08-03T07:06:14.150Z,25.12
2022-08-03T07:09:04.263Z,25.24
2022-08-03T07:11:53.017Z,25.33
2022-08-03T07:14:41.977Z,25.42
2022-08-03T07:17:32.375Z,25.49
2022-08-03T07:20:21.535Z,25.61
2022-08-03T07:23:17.553Z,25.71
2022-08-03T07:26:08.060Z,25.77
2022-08-03T07:29:00.501Z,25.82
2022-08-03T07:31:49.252Z,25.84
2022-08-03T07:34:39.237Z,25.93
2022-08-03T07:37:29.173Z,26.07
2022-08-03T07:40:17.977Z,26.19
2022-08-03T07:43:06.526Z,26.32
2022-08-03T07:45:55.896Z,26.43
2022-08-03T07:48:44.650Z,26.55
2022-08-03T07:51:33.204Z,26.69
2022-08-03T07:54:22.573Z,26.82
2022-08-03T07:57:12.555Z,26.96
2022-08-03T08:00:02.599Z,27.08
2022-08-03T08:03:00.716Z,27.15
2022-08-03T08:05:50.293Z,27.23
2022-08-03T08:08:41.869Z,27.33
2022-08-03T08:11:31.079Z,27.46
2022-08-03T08:14:21.018Z,27.61
2022-08-03T08:17:09.818Z,27.78
2022-08-03T08:19:58.575Z,27.94
2022-08-03T08:22:48.149Z,28.08
2022-08-03T08:25:38.746Z,28.21
2022-08-03T08:28:32.908Z,28.36
2022-08-03T08:31:23.016Z,28.45
2022-08-03T08:34:12.346Z,28.62
2022-08-03T08:37:01.960Z,28.76
2022-08-03T08:39:51.354Z,28.93
2022-08-03T08:42:42.161Z,29.10
2022-08-03T08:45:42.838Z,29.21
2022-08-03T08:48:32.550Z,29.35
2022-08-03T08:51:22.942Z,29.48
2022-08-03T08:54:15.913Z,29.66
2022-08-03T08:57:12.406Z,29.83
2022-08-03T09:00:18.162Z,30.00
2022-08-03T09:03:08.065Z,30.20
2022-08-03T09:05:58.123Z,30.33
2022-08-03T09:08:47.217Z,30.39
2022-08-03T09:12:00.418Z,30.50
2022-08-03T09:15:07.600Z,30.67
2022-08-03T09:17:56.991Z,30.82
2022-08-03T09:20:46.854Z,30.97
2022-08-03T09:24:01.387Z,31.06
2022-08-03T09:26:53.676Z,31.16
2022-08-03T09:29:47.997Z,31.19
2022-08-03T09:32:38.878Z,31.31
2022-08-03T09:38:39.016Z,31.64
2022-08-03T09:41:28.181Z,31.84
2022-08-03T09:44:25.196Z,32.02
2022-08-03T09:47:17.027Z,32.14
2022-08-03T09:50:12.474Z,32.17
2022-08-03T09:53:03.727Z,32.12
2022-08-03T09:56:33.598Z,32.19
2022-08-03T09:59:08.518Z,32.29
2022-08-03T10:01:58.421Z,32.41
2022-08-03T10:04:52.116Z,32.55
2022-08-03T10:07:46.416Z,32.60
2022-08-03T10:10:43.850Z,32.73
2022-08-03T10:13:33.302Z,32.93
2022-08-03T10:16:25.497Z,33.12
2022-08-03T10:19:15.936Z,33.32
2022-08-03T10:22:12.632Z,33.52
2022-08-03T10:25:04.872Z,33.65
2022-08-03T10:27:57.068Z,33.71
2022-08-03T10:30:50.585Z,33.72
2022-08-03T10:33:51.967Z,33.62
2022-08-03T10:36:42.989Z,33.63
2022-08-03T10:39:31.837Z,33.72
2022-08-03T10:42:26.433Z,33.82
2022-08-03T10:45:20.385Z,33.88
2022-08-03T10:48:10.593Z,33.85
2022-08-03T10:51:00.373Z,33.86
2022-08-03T10:53:55.018Z,33.98
2022-08-03T10:57:13.728Z,34.04
2022-08-03T11:00:15.952Z,34.03
2022-08-03T11:03:10.601Z,34.11
2022-08-03T11:06:18.574Z,34.17
2022-08-03T11:09:18.627Z,34.23
2022-08-03T11:12:31.208Z,34.20
2022-08-03T11:15:34.194Z,34.23
2022-08-03T11:18:25.375Z,34.28
2022-08-03T11:21:16.136Z,34.34
2022-08-03T11:24:06.861Z,34.38
2022-08-03T11:27:18.317Z,34.40
2022-08-03T11:30:11.128Z,34.41
2022-08-03T11:33:02.037Z,34.53
2022-08-03T11:36:02.553Z,34.70
2022-08-03T11:39:16.782Z,34.80
2022-08-03T11:42:46.793Z,34.95
2022-08-03T11:45:36.975Z,35.10
2022-08-03T11:48:34.266Z,35.17
2022-08-03T11:51:24.224Z,35.24
2022-08-03T11:54:13.893Z,35.31
2022-08-03T11:57:03.272Z,35.42
2022-08-03T11:59:52.430Z,35.48
2022-08-03T12:02:54.108Z,35.47
2022-08-03T12:05:51.732Z,35.25
2022-08-03T12:08:42.968Z,35.26
2022-08-03T12:11:32.438Z,35.34
2022-08-03T12:14:49.770Z,35.34
2022-08-03T12:17:35.959Z,35.44
2022-08-03T12:20:31.351Z,35.53
2022-08-03T12:23:27.676Z,35.56
2022-08-03T12:26:16.561Z,35.63
2022-08-03T12:29:05.111Z,35.73
2022-08-03T12:31:54.072Z,35.80
2022-08-03T12:34:50.662Z,35.78
2022-08-03T12:37:40.186Z,35.78
2022-08-03T12:40:30.097Z,35.77
2022-08-03T12:43:19.130Z,35.74
2022-08-03T12:46:16.460Z,35.61
2022-08-03T12:49:08.143Z,35.53
2022-08-03T12:52:06.841Z,35.56
2022-08-03T12:55:00.573Z,35.61
2022-08-03T12:57:50.350Z,35.63
2022-08-03T13:00:40.952Z,35.60
2022-08-03T13:03:42.812Z,35.62
2022-08-03T13:06:32.801Z,35.60
2022-08-03T13:09:21.763Z,35.57
2022-08-03T13:12:13.512Z,35.59
2022-08-03T13:15:03.171Z,35.61
2022-08-03T13:17:52.886Z,35.65
2022-08-03T13:20:43.096Z,35.71
2022-08-03T13:23:32.915Z,35.76
2022-08-03T13:26:22.282Z,35.80
2022-08-03T13:29:12.066Z,35.82
2022-08-03T13:32:03.691Z,35.78
2022-08-03T13:34:53.319Z,35.78
2022-08-03T13:37:42.422Z,35.79
2022-08-03T13:40:41.523Z,35.82
2022-08-03T13:43:30.790Z,35.89
2022-08-03T13:46:20.567Z,36.00
2022-08-03T13:49:10.143Z,36.08
2022-08-03T13:51:59.312Z,36.16
2022-08-03T13:54:49.499Z,36.23
2022-08-03T13:58:02.919Z,36.29
2022-08-03T14:00:48.515Z,36.36
2022-08-03T14:03:38.521Z,36.40
2022-08-03T14:06:27.256Z,36.37
2022-08-03T14:09:17.301Z,36.37
2022-08-03T14:12:08.900Z,36.31
2022-08-03T14:15:01.135Z,36.29
2022-08-03T14:17:51.287Z,36.31
2022-08-03T14:20:49.978Z,36.30
2022-08-03T14:23:43.908Z,36.23
2022-08-03T14:26:33.324Z,36.15
2022-08-03T14:29:22.286Z,36.10
2022-08-03T14:32:13.449Z,36.07
2022-08-03T14:35:02.664Z,36.04
2022-08-03T14:37:52.241Z,36.00
2022-08-03T14:40:40.790Z,35.93
2022-08-03T14:43:33.730Z,35.90
2022-08-03T14:46:23.226Z,35.91
2022-08-03T14:50:30.924Z,35.77
2022-08-03T14:52:21.211Z,35.66
2022-08-03T14:55:11.682Z,35.55
2022-08-03T14:58:05.123Z,35.37
2022-08-03T15:02:02.742Z,35.19
2022-08-03T15:04:19.440Z,35.13
2022-08-03T15:07:08.637Z,35.12
2022-08-03T15:09:59.081Z,35.14
2022-08-03T15:12:48.782Z,35.14
2022-08-03T15:15:37.545Z,35.08
2022-08-03T15:18:26.089Z,35.10
2022-08-03T15:21:16.628Z,35.11
2022-08-03T15:24:24.899Z,34.99
2022-08-03T15:27:13.661Z,34.90
2022-08-03T15:30:10.325Z,34.86
2022-08-03T15:32:59.638Z,34.82
2022-08-03T15:35:49.381Z,34.76
2022-08-03T15:38:39.538Z,34.72
2022-08-03T15:41:28.506Z,34.73
2022-08-03T15:44:20.229Z,34.70
2022-08-03T15:47:10.303Z,34.68
2022-08-03T15:50:00.497Z,34.67
2022-08-03T15:52:50.029Z,34.66
2022-08-03T15:55:40.268Z,34.58
2022-08-03T15:59:09.295Z,34.51
2022-08-03T16:01:40.120Z,34.46
2022-08-03T16:04:29.619Z,34.42
2022-08-03T16:07:39.520Z,34.37
2022-08-03T16:10:30.091Z,34.33
2022-08-03T16:13:18.870Z,34.26
2022-08-03T16:16:07.905Z,34.18
2022-08-03T16:18:57.406Z,34.13
2022-08-03T16:21:48.742Z,34.07
2022-08-03T16:24:39.234Z,34.00
2022-08-03T16:27:56.592Z,33.90
2022-08-03T16:30:40.496Z,33.81
2022-08-03T16:33:29.755Z,33.74
2022-08-03T16:36:19.228Z,33.65
2022-08-03T16:39:08.672Z,33.57
2022-08-03T16:42:01.082Z,33.49
2022-08-03T16:44:51.249Z,33.43
2022-08-03T16:47:40.394Z,33.35
2022-08-03T16:50:30.378Z,33.25
2022-08-03T16:53:33.721Z,33.16
2022-08-03T16:56:28.368Z,33.02
2022-08-03T16:59:17.946Z,32.93
2022-08-03T17:02:10.414Z,32.85
2022-08-03T17:05:01.603Z,32.75
2022-08-03T17:07:54.347Z,32.66
2022-08-03T17:10:45.325Z,32.55
2022-08-03T17:13:39.884Z,32.45
2022-08-03T17:16:29.329Z,32.33
2022-08-03T17:19:20.941Z,32.22
2022-08-03T17:22:16.000Z,32.03
2022-08-03T17:25:08.512Z,31.84
2022-08-03T17:28:49.400Z,31.67
2022-08-03T17:31:23.479Z,31.45
2022-08-03T17:34:26.621Z,31.30
2022-08-03T17:37:50.029Z,31.15
2022-08-03T17:40:26.453Z,30.99
2022-08-03T17:44:14.207Z,30.83
2022-08-03T17:46:26.753Z,30.68
2022-08-03T17:49:25.079Z,30.56
2022-08-03T17:52:21.401Z,30.44
2022-08-03T17:55:55.683Z,30.29
2022-08-03T18:02:29.868Z,29.99
2022-08-03T18:05:22.013Z,29.83
2022-08-03T18:08:12.401Z,29.73
2022-08-03T18:11:14.660Z,29.62
2022-08-03T18:14:16.620Z,29.50
2022-08-03T18:17:10.371Z,29.37
2022-08-03T18:20:09.156Z,29.26
2022-08-03T18:23:04.733Z,29.14
2022-08-03T18:25:59.105Z,29.03
2022-08-03T18:28:50.552Z,28.92
2022-08-03T18:32:02.709Z,28.82
2022-08-03T18:41:15.745Z,28.48
2022-08-03T18:44:46.540Z,28.39
2022-08-03T18:47:50.427Z,28.29
2022-08-03T18:50:50.034Z,28.18
2022-08-03T18:54:02.452Z,28.09
2022-08-03T18:56:57.766Z,28.01
2022-08-03T18:59:52.783Z,27.92
2022-08-03T19:02:48.877Z,27.82
2022-08-03T19:05:57.833Z,27.75
2022-08-03T19:09:00.565Z,27.65
2022-08-03T19:12:12.617Z,27.56
2022-08-03T19:15:12.455Z,27.47
2022-08-03T19:18:08.827Z,27.38
2022-08-03T19:20:59.766Z,27.29
2022-08-03T19:23:49.717Z,27.21
2022-08-03T19:26:40.748Z,27.13
2022-08-03T19:29:58.036Z,27.04
2022-08-03T19:32:41.267Z,26.92
2022-08-03T19:35:51.447Z,26.84
2022-08-03T19:38:47.012Z,26.77
2022-08-03T19:41:41.947Z,26.70
2022-08-03T19:44:34.501Z,26.63
2022-08-03T19:47:30.114Z,26.56
2022-08-03T19:50:20.683Z,26.50
2022-08-03T19:53:12.326Z,26.44
2022-08-03T19:56:06.195Z,26.38
2022-08-03T19:58:56.098Z,26.32
2022-08-03T20:01:50.296Z,26.25
2022-08-03T20:04:40.039Z,26.19
2022-08-03T20:07:31.780Z,26.13
2022-08-03T20:10:21.444Z,26.09
2022-08-03T20:13:10.813Z,26.01
2022-08-03T20:16:08.989Z,25.93
2022-08-03T20:19:00.407Z,25.86
2022-08-03T20:21:51.303Z,25.78
2022-08-03T20:24:43.825Z,25.71
2022-08-03T20:28:06.730Z,25.64
2022-08-03T20:30:49.837Z,25.59
2022-08-03T20:33:48.532Z,25.53
2022-08-03T20:36:39.427Z,25.46
2022-08-03T20:39:28.564Z,25.41
2022-08-03T20:42:21.460Z,25.36
2022-08-03T20:45:59.480Z,25.32
2022-08-03T20:48:23.349Z,25.29
2022-08-03T20:51:19.774Z,25.24
2022-08-03T20:54:22.469Z,25.22
2022-08-03T20:57:13.508Z,25.19
2022-08-03T21:00:07.467Z,25.15
2022-08-03T21:02:57.526Z,25.12
2022-08-03T21:05:53.542Z,25.09
2022-08-03T21:08:48.108Z,25.04
2022-08-03T21:11:43.454Z,25.00
2022-08-03T21:13:03.947Z,30.13
2022-08-03T21:13:04.956Z,28.57
2022-08-03T21:13:05.228Z,28.70
2022-08-03T21:14:39.566Z,24.96
2022-08-03T21:17:41.851Z,24.91
2022-08-03T21:20:33.323Z,24.87
2022-08-03T21:23:40.195Z,24.82
2022-08-03T21:26:34.674Z,24.75
2022-08-03T21:29:24.710Z,24.72
2022-08-03T21:32:19.179Z,24.67
2022-08-03T21:35:23.375Z,24.60
2022-08-03T21:38:18.924Z,24.55
2022-08-03T21:41:08.681Z,24.51
2022-08-03T21:43:58.302Z,24.45
2022-08-03T21:46:49.812Z,24.40
2022-08-03T21:50:07.503Z,24.35
2022-08-03T21:52:51.961Z,24.31
2022-08-03T21:55:43.056Z,24.26
2022-08-03T21:58:38.166Z,24.22
2022-08-03T22:01:29.696Z,24.17
2022-08-03T22:04:50.886Z,24.12
2022-08-03T22:07:35.722Z,24.06
2022-08-03T22:10:27.633Z,24.01
2022-08-03T22:13:43.345Z,23.97
2022-08-03T22:16:29.637Z,23.91
2022-08-03T22:19:19.410Z,23.85
2022-08-03T22:22:13.516Z,23.80
2022-08-03T22:25:06.185Z,23.76
2022-08-03T22:28:01.197Z,23.70
2022-08-03T22:30:50.155Z,23.64
2022-08-03T22:33:40.074Z,23.59
2022-08-03T22:36:30.283Z,23.55
2022-08-03T22:39:22.792Z,23.54
2022-08-03T22:42:16.079Z,23.50
2022-08-03T22:45:08.119Z,23.47
2022-08-03T22:47:58.231Z,23.44
2022-08-03T22:50:48.327Z,23.42
2022-08-03T22:53:38.753Z,23.40
2022-08-03T22:56:27.635Z,23.37
2022-08-03T22:59:38.800Z,23.36
2022-08-03T23:02:26.943Z,23.33
2022-08-03T23:06:02.022Z,23.29
2022-08-03T23:08:33.517Z,23.26
2022-08-03T23:11:24.431Z,23.25
2022-08-03T23:14:15.330Z,23.22
2022-08-03T23:17:06.913Z,23.19
2022-08-03T23:19:58.610Z,23.17
2022-08-03T23:22:50.370Z,23.15
2022-08-03T23:25:41.542Z,23.14
2022-08-03T23:28:32.488Z,23.11
2022-08-03T23:31:23.151Z,23.08
2022-08-03T23:34:32.592Z,23.07
2022-08-03T23:37:22.228Z,23.03
2022-08-03T23:40:14.194Z,22.98
2022-08-03T23:43:03.369Z,22.94
2022-08-03T23:45:55.664Z,22.89
2022-08-03T23:48:44.723Z,22.84
2022-08-03T23:51:44.789Z,22.79
2022-08-03T23:54:46.445Z,22.73
2022-08-03T23:57:46.337Z,22.67
